createdAt,value
2018-10-02T00:01:13.035Z,11.28
2018-10-02T00:03:41.092Z,11.40
2018-10-02T00:06:09.287Z,10.32
2018-10-02T00:08:37.318Z,8.65
2018-10-02T00:11:11.435Z,7.05
2018-10-02T00:13:44.989Z,9.45
2018-10-02T00:16:13.074Z,9.55
2018-10-02T00:18:41.141Z,13.18
2018-10-02T00:21:09.256Z,12.33
2018-10-02T00:23:37.304Z,9.53
2018-10-02T00:26:05.469Z,11.68
2018-10-02T00:28:33.591Z,11.48
2018-10-02T00:31:01.716Z,13.65
2018-10-02T00:33:29.762Z,8.90
2018-10-02T00:35:57.873Z,9.05
2018-10-02T00:38:25.921Z,9.93
2018-10-02T00:40:53.971Z,17.23
2018-10-02T00:43:22.169Z,9.80
2018-10-02T00:45:50.263Z,9.50
2018-10-02T00:48:18.307Z,9.38
2018-10-02T00:50:46.420Z,8.18
2018-10-02T00:53:14.536Z,10.48
2018-10-02T00:55:42.664Z,10.65
2018-10-02T00:58:10.788Z,12.20
2018-10-02T01:00:38.933Z,9.83
2018-10-02T01:03:07.147Z,8.75
2018-10-02T01:05:35.181Z,9.30
2018-10-02T01:08:03.195Z,8.60
2018-10-02T01:10:31.325Z,7.85
2018-10-02T01:12:59.394Z,12.03
2018-10-02T01:15:27.468Z,9.00
2018-10-02T01:17:55.564Z,8.25
2018-10-02T01:20:23.717Z,9.10
2018-10-02T01:22:51.740Z,11.57
2018-10-02T01:25:19.915Z,11.90
2018-10-02T01:27:47.988Z,10.43
2018-10-02T01:30:16.118Z,8.33
2018-10-02T01:32:44.177Z,10.40
2018-10-02T01:35:12.198Z,11.15
2018-10-02T01:37:40.420Z,7.53
2018-10-02T01:40:08.530Z,9.83
2018-10-02T01:42:36.646Z,9.78
2018-10-02T01:45:05.480Z,7.80
2018-10-02T01:47:33.494Z,8.23
2018-10-02T01:50:01.576Z,9.85
2018-10-02T01:52:29.632Z,11.78
2018-10-02T01:54:57.666Z,9.78
2018-10-02T01:57:25.692Z,15.10
2018-10-02T01:59:53.723Z,8.33
2018-10-02T02:02:21.838Z,8.73
2018-10-02T02:04:49.863Z,13.30
2018-10-02T02:07:17.996Z,9.28
2018-10-02T02:09:46.036Z,10.75
2018-10-02T02:12:14.056Z,9.28
2018-10-02T02:14:42.113Z,8.13
2018-10-02T02:17:10.160Z,11.43
2018-10-02T02:19:38.174Z,8.78
2018-10-02T02:22:06.379Z,8.15
2018-10-02T02:24:34.427Z,15.83
2018-10-02T02:27:02.467Z,10.08
2018-10-02T02:29:30.514Z,11.33
2018-10-02T02:31:58.648Z,9.60
2018-10-02T02:34:26.694Z,8.60
2018-10-02T02:36:54.941Z,11.05
2018-10-02T02:39:23.088Z,10.60
2018-10-02T02:41:51.126Z,7.12
2018-10-02T02:44:19.210Z,9.03
2018-10-02T02:46:47.258Z,8.53
2018-10-02T02:49:21.174Z,10.98
2018-10-02T02:51:49.261Z,17.23
2018-10-02T02:54:17.358Z,14.10
2018-10-02T02:56:45.407Z,13.88
2018-10-02T02:59:13.585Z,9.93
2018-10-02T03:01:41.756Z,10.93
2018-10-02T03:04:09.794Z,12.18
2018-10-02T03:06:37.871Z,6.53
2018-10-02T03:09:07.981Z,11.12
2018-10-02T03:11:36.025Z,13.48
2018-10-02T03:14:04.114Z,13.25
2018-10-02T03:16:32.141Z,8.58
2018-10-02T03:19:00.257Z,10.45
2018-10-02T03:21:28.398Z,10.10
2018-10-02T03:23:56.454Z,7.85
2018-10-02T03:26:24.560Z,8.68
2018-10-02T03:28:52.631Z,13.20
2018-10-02T03:31:20.719Z,10.65
2018-10-02T03:33:48.788Z,10.00
2018-10-02T03:36:16.819Z,9.80
2018-10-02T03:38:44.807Z,16.48
2018-10-02T03:41:12.879Z,8.08
2018-10-02T03:43:41.100Z,11.03
2018-10-02T03:46:09.193Z,14.07
2018-10-02T03:48:37.223Z,14.80
2018-10-02T03:51:05.347Z,13.18
2018-10-02T03:53:33.446Z,12.03
2018-10-02T03:56:01.482Z,9.08
2018-10-02T03:58:29.628Z,9.30
2018-10-02T04:00:57.726Z,13.05
2018-10-02T04:03:25.760Z,8.35
2018-10-02T04:05:53.848Z,11.83
2018-10-02T04:08:22.053Z,9.25
2018-10-02T04:10:51.044Z,11.80
2018-10-02T04:13:19.191Z,10.63
2018-10-02T04:15:47.187Z,8.60
2018-10-02T04:18:15.236Z,8.48
2018-10-02T04:20:43.339Z,9.65
2018-10-02T04:23:11.412Z,10.32
2018-10-02T04:25:39.453Z,8.15
2018-10-02T04:28:07.575Z,12.00
2018-10-02T04:30:35.680Z,11.55
2018-10-02T04:33:03.767Z,6.60
2018-10-02T04:35:31.884Z,7.05
2018-10-02T04:38:00.000Z,4.95
2018-10-02T04:40:28.155Z,10.18
2018-10-02T04:42:56.328Z,7.42
2018-10-02T04:45:24.379Z,12.30
2018-10-02T04:47:53.523Z,7.03
2018-10-02T04:50:22.957Z,9.38
2018-10-02T04:52:51.110Z,7.92
2018-10-02T04:55:19.246Z,7.78
2018-10-02T04:57:47.269Z,8.78
2018-10-02T05:00:16.043Z,6.97
2018-10-02T05:02:44.096Z,10.10
2018-10-02T05:05:12.269Z,9.78
2018-10-02T05:07:40.377Z,9.18
2018-10-02T05:10:08.502Z,11.22
2018-10-02T05:12:36.630Z,8.88
2018-10-02T05:15:04.817Z,8.58
2018-10-02T05:17:32.897Z,7.47
2018-10-02T05:20:00.962Z,6.72
2018-10-02T05:22:29.116Z,4.42
2018-10-02T05:24:57.148Z,6.75
2018-10-02T05:27:25.288Z,6.60
2018-10-02T05:29:53.324Z,7.80
2018-10-02T05:32:21.402Z,9.10
2018-10-02T05:34:49.509Z,10.30
2018-10-02T05:37:17.671Z,10.23
2018-10-02T05:39:45.734Z,8.03
2018-10-02T05:42:13.888Z,10.65
2018-10-02T05:44:41.976Z,10.93
2018-10-02T05:47:10.067Z,9.30
2018-10-02T05:49:38.285Z,5.62
2018-10-02T05:52:06.457Z,8.95
2018-10-02T05:54:34.587Z,8.78
2018-10-02T05:57:02.711Z,10.03
2018-10-02T05:59:30.854Z,6.97
2018-10-02T06:01:59.512Z,9.60
2018-10-02T06:04:27.741Z,15.88
2018-10-02T06:06:55.852Z,8.85
2018-10-02T06:09:24.051Z,5.25
2018-10-02T06:11:52.283Z,7.33
2018-10-02T06:14:20.455Z,6.12
2018-10-02T06:16:48.688Z,5.90
2018-10-02T06:19:17.555Z,11.95
2018-10-02T06:21:45.707Z,9.40
2018-10-02T06:24:13.975Z,6.95
2018-10-02T06:26:42.139Z,7.72
2018-10-02T06:29:10.429Z,6.83
2018-10-02T06:31:38.606Z,6.50
2018-10-02T06:34:06.766Z,5.20
2018-10-02T06:36:34.960Z,6.35
2018-10-02T06:39:04.172Z,7.50
2018-10-02T06:41:32.464Z,8.70
2018-10-02T06:44:00.592Z,7.72
2018-10-02T06:46:28.735Z,8.33
2018-10-02T06:48:56.945Z,6.90
2018-10-02T06:51:25.332Z,6.33
2018-10-02T06:53:53.390Z,6.95
2018-10-02T06:56:21.607Z,3.95
2018-10-02T06:58:49.698Z,5.92
2018-10-02T07:01:17.871Z,7.10
2018-10-02T07:03:46.291Z,6.30
2018-10-02T07:06:14.443Z,5.95
2018-10-02T07:08:42.676Z,7.08
2018-10-02T07:11:10.802Z,6.60
2018-10-02T07:13:39.023Z,5.50
2018-10-02T07:16:07.331Z,9.30
2018-10-02T07:18:35.531Z,8.28
2018-10-02T07:21:04.021Z,7.37
2018-10-02T07:23:32.148Z,7.12
2018-10-02T07:26:00.233Z,7.10
2018-10-02T07:28:28.572Z,7.37
2018-10-02T07:30:56.741Z,9.88
2018-10-02T07:33:25.008Z,8.50
2018-10-02T07:35:53.148Z,7.92
2018-10-02T07:38:21.331Z,7.55
2018-10-02T07:40:49.535Z,7.83
2018-10-02T07:43:17.766Z,9.00
2018-10-02T07:45:45.935Z,6.35
2018-10-02T07:48:14.187Z,8.68
2018-10-02T07:50:42.449Z,5.80
2018-10-02T07:53:10.685Z,7.03
2018-10-02T07:55:38.853Z,4.60
2018-10-02T07:58:06.936Z,9.90
2018-10-02T08:00:35.290Z,9.10
2018-10-02T08:03:03.499Z,12.47
2018-10-02T08:05:31.695Z,6.55
2018-10-02T08:07:59.877Z,7.30
2018-10-02T08:10:28.180Z,6.87
2018-10-02T08:12:56.748Z,9.63
2018-10-02T08:15:25.588Z,8.95
2018-10-02T08:17:53.835Z,7.92
2018-10-02T08:20:22.098Z,8.78
2018-10-02T08:22:50.390Z,11.63
2018-10-02T08:25:18.552Z,7.05
2018-10-02T08:27:46.883Z,10.72
2018-10-02T08:30:15.261Z,5.47
2018-10-02T08:32:43.443Z,7.17
2018-10-02T08:35:11.685Z,8.13
2018-10-02T08:37:40.021Z,7.20
2018-10-02T08:40:08.585Z,11.43
2018-10-02T08:42:36.792Z,10.60
2018-10-02T08:45:05.230Z,6.90
2018-10-02T08:47:33.466Z,6.62
2018-10-02T08:50:01.709Z,9.75
2018-10-02T08:52:29.877Z,8.20
2018-10-02T08:54:58.041Z,13.50
2018-10-02T08:57:26.234Z,5.45
2018-10-02T08:59:54.366Z,11.08
2018-10-02T09:02:22.802Z,7.78
2018-10-02T09:04:51.204Z,7.45
2018-10-02T09:07:19.579Z,9.23
2018-10-02T09:09:47.753Z,13.55
2018-10-02T09:12:15.988Z,9.33
2018-10-02T09:14:44.273Z,12.73
2018-10-02T09:17:12.441Z,10.63
2018-10-02T09:19:41.528Z,6.55
2018-10-02T09:22:09.719Z,6.08
2018-10-02T09:24:39.576Z,7.22
2018-10-02T09:27:07.757Z,8.90
2018-10-02T09:29:41.634Z,8.65
2018-10-02T09:32:15.442Z,12.68
2018-10-02T09:34:49.220Z,6.20
2018-10-02T09:37:23.056Z,6.83
2018-10-02T09:39:57.013Z,13.18
2018-10-02T09:42:31.038Z,10.32
2018-10-02T09:44:59.208Z,17.50
2018-10-02T09:47:27.404Z,12.58
2018-10-02T09:49:55.682Z,13.05
2018-10-02T09:52:23.900Z,11.03
2018-10-02T09:54:52.238Z,12.45
2018-10-02T09:57:21.228Z,7.85
2018-10-02T09:59:49.520Z,9.43
2018-10-02T10:02:23.456Z,9.78
2018-10-02T10:04:51.694Z,8.28
2018-10-02T10:07:20.037Z,8.23
2018-10-02T10:09:48.191Z,12.78
2018-10-02T10:12:16.456Z,7.90
2018-10-02T10:14:44.662Z,5.05
2018-10-02T10:17:12.975Z,12.03
2018-10-02T10:19:41.045Z,12.18
2018-10-02T10:22:09.271Z,7.22
2018-10-02T10:24:37.546Z,8.75
2018-10-02T10:27:06.004Z,11.15
2018-10-02T10:29:34.350Z,8.10
2018-10-02T10:32:02.623Z,10.53
2018-10-02T10:34:30.865Z,10.35
2018-10-02T10:36:59.375Z,11.65
2018-10-02T10:39:27.622Z,11.45
2018-10-02T10:41:55.962Z,8.68
2018-10-02T10:44:24.312Z,6.10
2018-10-02T10:46:52.466Z,9.10
2018-10-02T10:49:47.130Z,9.05
2018-10-02T10:58:09.664Z,6.97
2018-10-02T11:00:37.858Z,8.03
2018-10-02T11:03:06.220Z,6.90
2018-10-02T11:05:34.449Z,7.42
2018-10-02T11:08:02.831Z,8.43
2018-10-02T11:10:31.105Z,8.60
2018-10-02T11:12:59.344Z,7.65
2018-10-02T11:15:29.465Z,10.98
2018-10-02T11:18:01.198Z,7.08
2018-10-02T11:20:32.294Z,8.10
2018-10-02T11:23:00.596Z,4.22
2018-10-02T11:25:28.928Z,6.33
2018-10-02T11:27:57.005Z,12.82
2018-10-02T11:30:25.272Z,7.65
2018-10-02T11:32:53.466Z,6.95
2018-10-02T11:35:21.905Z,10.80
2018-10-02T11:43:44.861Z,8.35
2018-10-02T11:46:13.290Z,8.75
2018-10-02T11:48:42.207Z,7.67
2018-10-02T11:51:10.501Z,3.87
2018-10-02T11:53:40.400Z,6.25
2018-10-02T11:56:08.751Z,4.95
2018-10-02T11:58:37.044Z,5.95
2018-10-02T12:01:05.417Z,11.65
2018-10-02T12:03:33.568Z,5.12
2018-10-02T12:06:01.760Z,7.03
2018-10-02T12:08:29.997Z,6.50
2018-10-02T12:10:58.208Z,7.33
2018-10-02T12:13:26.607Z,14.70
2018-10-02T12:15:54.891Z,7.10
2018-10-02T12:18:23.180Z,7.55
2018-10-02T12:20:51.320Z,9.85
2018-10-02T12:23:19.530Z,9.00
2018-10-02T12:25:47.690Z,8.25
2018-10-02T12:28:15.947Z,9.03
2018-10-02T12:30:44.133Z,6.97
2018-10-02T12:33:12.449Z,9.83
2018-10-02T12:35:40.708Z,8.25
2018-10-02T12:38:08.937Z,8.13
2018-10-02T12:40:37.140Z,7.33
2018-10-02T12:43:05.351Z,6.35
2018-10-02T12:45:33.625Z,6.05
2018-10-02T12:48:01.904Z,11.40
2018-10-02T12:50:30.103Z,14.55
2018-10-02T12:52:58.428Z,6.28
2018-10-02T12:55:26.623Z,8.03
2018-10-02T12:57:54.906Z,10.28
2018-10-02T13:00:23.157Z,8.30
2018-10-02T13:02:51.394Z,6.42
2018-10-02T13:05:19.747Z,8.65
2018-10-02T13:07:48.248Z,11.12
2018-10-02T13:10:16.463Z,7.40
2018-10-02T13:12:44.672Z,5.78
2018-10-02T13:15:12.863Z,7.95
2018-10-02T13:17:41.090Z,8.18
2018-10-02T13:20:09.345Z,4.85
2018-10-02T13:22:37.602Z,7.30
2018-10-02T13:25:05.899Z,10.05
2018-10-02T13:27:34.152Z,7.35
2018-10-02T13:30:02.546Z,5.83
2018-10-02T13:32:30.836Z,12.07
2018-10-02T13:34:59.038Z,6.95
2018-10-02T13:37:27.513Z,12.65
2018-10-02T13:39:55.763Z,6.50
2018-10-02T13:42:24.150Z,5.83
2018-10-02T13:44:52.420Z,7.83
2018-10-02T13:47:20.650Z,7.90
2018-10-02T13:49:49.043Z,9.70
2018-10-02T13:52:17.366Z,8.70
2018-10-02T13:54:45.616Z,8.28
2018-10-02T13:57:13.810Z,7.37
2018-10-02T13:59:42.050Z,10.28
2018-10-02T14:02:10.361Z,11.93
2018-10-02T14:04:38.553Z,8.60
2018-10-02T14:07:06.936Z,10.20
2018-10-02T14:09:35.276Z,8.35
2018-10-02T14:12:03.554Z,12.50
2018-10-02T14:14:31.907Z,9.68
2018-10-02T14:17:00.185Z,10.38
2018-10-02T14:19:28.436Z,6.65
2018-10-02T14:21:57.607Z,5.95
2018-10-02T14:24:25.888Z,7.50
2018-10-02T14:26:54.196Z,8.60
2018-10-02T14:29:22.514Z,9.83
2018-10-02T14:31:50.869Z,10.78
2018-10-02T14:34:19.096Z,9.13
2018-10-02T14:36:47.537Z,9.90
2018-10-02T14:39:15.835Z,8.75
2018-10-02T14:41:44.124Z,10.53
2018-10-02T14:44:12.422Z,12.13
2018-10-02T14:46:40.764Z,10.13
2018-10-02T14:49:09.167Z,10.08
2018-10-02T14:51:37.518Z,13.85
2018-10-02T14:54:06.145Z,8.90
2018-10-02T14:56:34.435Z,12.90
2018-10-02T14:59:02.767Z,10.10
2018-10-02T15:01:31.046Z,13.80
2018-10-02T15:03:59.286Z,8.88
2018-10-02T15:06:27.611Z,8.38
2018-10-02T15:08:56.003Z,9.03
2018-10-02T15:11:24.554Z,8.78
2018-10-02T15:13:53.085Z,10.75
2018-10-02T15:16:21.519Z,9.30
2018-10-02T15:18:49.806Z,10.75
2018-10-02T15:21:18.101Z,12.07
2018-10-02T15:23:46.419Z,12.63
2018-10-02T15:26:14.789Z,8.85
2018-10-02T15:28:43.102Z,8.63
2018-10-02T15:31:11.303Z,12.40
2018-10-02T15:33:39.553Z,8.80
2018-10-02T15:36:07.914Z,9.03
2018-10-02T15:38:36.376Z,11.73
2018-10-02T15:41:04.777Z,10.08
2018-10-02T15:43:34.163Z,6.87
2018-10-02T15:46:02.570Z,11.20
2018-10-02T15:48:30.969Z,10.50
2018-10-02T15:50:59.296Z,6.35
2018-10-02T15:53:27.682Z,13.03
2018-10-02T15:55:56.067Z,10.58
2018-10-02T15:58:24.344Z,5.78
2018-10-02T16:00:53.795Z,5.92
2018-10-02T16:03:22.227Z,7.42
2018-10-02T16:05:50.973Z,6.03
2018-10-02T16:08:19.395Z,6.58
2018-10-02T16:10:47.861Z,8.43
2018-10-02T16:13:16.073Z,6.62
2018-10-02T16:15:44.777Z,6.78
2018-10-02T16:18:13.756Z,6.20
2018-10-02T16:20:42.044Z,5.65
2018-10-02T16:23:10.432Z,8.95
2018-10-02T16:25:38.788Z,7.42
2018-10-02T16:28:07.174Z,6.92
2018-10-02T16:30:35.776Z,7.05
2018-10-02T16:33:04.164Z,7.12
2018-10-02T16:35:32.501Z,4.42
2018-10-02T16:38:00.976Z,3.92
2018-10-02T16:40:29.332Z,4.55
2018-10-02T16:42:57.699Z,5.87
2018-10-02T16:45:26.339Z,3.02
2018-10-02T16:47:54.715Z,3.75
2018-10-02T16:50:22.946Z,2.95
2018-10-02T16:52:51.395Z,4.55
2018-10-02T16:55:20.074Z,2.40
2018-10-02T16:57:48.431Z,3.15
2018-10-02T17:00:16.812Z,2.35
2018-10-02T17:02:45.195Z,1.90
2018-10-02T17:05:13.525Z,1.80
2018-10-02T17:07:41.791Z,2.37
2018-10-02T17:10:10.235Z,2.00
2018-10-02T17:12:38.645Z,3.22
2018-10-02T17:15:07.364Z,2.72
2018-10-02T17:17:35.739Z,2.45
2018-10-02T17:20:04.424Z,1.75
2018-10-02T17:22:32.804Z,2.25
2018-10-02T17:25:01.132Z,2.08
2018-10-02T17:27:29.460Z,3.80
2018-10-02T17:29:57.765Z,2.33
2018-10-02T17:32:26.245Z,1.92
2018-10-02T17:34:54.693Z,1.63
2018-10-02T17:37:23.264Z,2.15
2018-10-02T17:39:51.698Z,4.42
2018-10-02T17:42:20.004Z,3.25
2018-10-02T17:44:48.371Z,1.62
2018-10-02T17:47:16.681Z,1.37
2018-10-02T17:49:45.020Z,1.87
2018-10-02T17:52:13.706Z,1.75
2018-10-02T17:54:42.161Z,1.65
2018-10-02T17:57:10.510Z,1.60
2018-10-02T17:59:38.935Z,2.75
2018-10-02T18:02:07.375Z,1.77
2018-10-02T18:04:35.893Z,1.30
2018-10-02T18:07:04.379Z,2.30
2018-10-02T18:09:32.701Z,2.02
2018-10-02T18:12:01.177Z,1.47
2018-10-02T18:14:29.601Z,2.02
2018-10-02T18:16:57.919Z,2.47
2018-10-02T18:19:26.268Z,2.13
2018-10-02T18:21:54.649Z,2.90
2018-10-02T18:24:23.023Z,1.80
2018-10-02T18:26:51.471Z,2.37
2018-10-02T18:29:19.866Z,3.27
2018-10-02T18:31:48.264Z,2.40
2018-10-02T18:34:16.611Z,1.90
2018-10-02T18:36:45.324Z,2.83
2018-10-02T18:39:13.740Z,2.40
2018-10-02T18:41:42.109Z,6.17
2018-10-02T18:44:10.730Z,4.15
2018-10-02T18:46:39.294Z,2.33
2018-10-02T18:49:07.836Z,1.90
2018-10-02T18:51:36.193Z,2.33
2018-10-02T18:54:04.533Z,2.33
2018-10-02T18:56:32.942Z,3.33
2018-10-02T18:59:01.309Z,2.65
2018-10-02T19:01:29.701Z,2.10
2018-10-02T19:03:58.148Z,3.47
2018-10-02T19:06:26.488Z,3.10
2018-10-02T19:09:00.624Z,7.37
2018-10-02T19:11:34.649Z,3.00
2018-10-02T19:14:03.214Z,2.40
2018-10-02T19:16:33.275Z,2.70
2018-10-02T19:19:02.027Z,3.02
2018-10-02T19:21:30.710Z,3.27
2018-10-02T19:23:59.329Z,7.30
2018-10-02T19:26:29.091Z,3.72
2018-10-02T19:28:57.677Z,3.77
2018-10-02T19:31:31.719Z,3.05
2018-10-02T19:34:00.479Z,5.50
2018-10-02T19:36:29.011Z,2.77
2018-10-02T19:39:01.662Z,2.87
2018-10-02T19:41:30.440Z,2.67
2018-10-02T19:43:58.903Z,3.95
2018-10-02T19:46:32.854Z,2.52
2018-10-02T19:49:01.313Z,2.40
2018-10-02T19:51:35.225Z,4.30
2018-10-02T19:54:03.783Z,3.77
2018-10-02T19:56:32.292Z,4.80
2018-10-02T19:59:00.700Z,3.98
2018-10-02T20:01:29.096Z,2.63
2018-10-02T20:03:57.475Z,3.60
2018-10-02T20:06:25.883Z,3.65
2018-10-02T20:08:54.315Z,3.00
2018-10-02T20:11:22.683Z,5.80
2018-10-02T20:13:51.361Z,3.13
2018-10-02T20:16:19.777Z,4.00
2018-10-02T20:18:48.398Z,4.60
2018-10-02T20:21:16.908Z,3.90
2018-10-02T20:23:45.203Z,3.47
2018-10-02T20:26:13.433Z,3.67
2018-10-02T20:28:43.960Z,4.07
2018-10-02T20:31:12.271Z,3.40
2018-10-02T20:33:40.773Z,4.97
2018-10-02T20:36:09.174Z,3.90
2018-10-02T20:38:37.808Z,6.00
2018-10-02T20:41:07.808Z,3.53
2018-10-02T20:43:36.609Z,3.43
2018-10-02T20:46:04.834Z,6.05
2018-10-02T20:48:33.059Z,4.63
2018-10-02T20:51:01.484Z,4.05
2018-10-02T20:53:31.893Z,4.63
2018-10-02T20:56:00.281Z,4.50
2018-10-02T20:58:28.585Z,5.05
2018-10-02T21:00:56.808Z,5.22
2018-10-02T21:03:25.061Z,4.12
2018-10-02T21:05:53.401Z,4.93
2018-10-02T21:08:23.186Z,4.72
2018-10-02T21:10:51.529Z,4.42
2018-10-02T21:13:19.827Z,6.73
2018-10-02T21:15:48.266Z,4.12
2018-10-02T21:18:16.824Z,5.50
2018-10-02T21:20:45.214Z,4.47
2018-10-02T21:23:13.767Z,5.47
2018-10-02T21:25:42.260Z,5.20
2018-10-02T21:28:10.731Z,5.10
2018-10-02T21:30:39.113Z,5.67
2018-10-02T21:33:07.432Z,6.00
2018-10-02T21:35:35.674Z,5.42
2018-10-02T21:38:04.481Z,6.50
2018-10-02T21:40:32.996Z,6.37
2018-10-02T21:43:01.515Z,6.40
2018-10-02T21:45:29.843Z,7.13
2018-10-02T21:47:58.233Z,6.90
2018-10-02T21:50:26.527Z,6.40
2018-10-02T21:52:54.929Z,7.50
2018-10-02T21:55:23.181Z,11.03
2018-10-02T21:57:51.541Z,11.18
2018-10-02T22:00:19.885Z,7.63
2018-10-02T22:02:48.141Z,6.83
2018-10-02T22:05:16.651Z,7.07
2018-10-02T22:07:44.912Z,8.17
2018-10-02T22:10:13.172Z,7.40
2018-10-02T22:12:41.447Z,8.10
2018-10-02T22:15:09.744Z,6.90
2018-10-02T22:17:38.020Z,6.70
2018-10-02T22:20:06.387Z,7.77
2018-10-02T22:22:34.630Z,7.00
2018-10-02T22:25:02.957Z,6.90
2018-10-02T22:27:31.238Z,8.03
2018-10-02T22:29:59.488Z,7.20
2018-10-02T22:32:27.866Z,7.50
2018-10-02T22:34:56.163Z,8.13
2018-10-02T22:37:24.634Z,7.23
2018-10-02T22:39:52.923Z,7.67
2018-10-02T22:42:21.230Z,8.10
2018-10-02T22:44:49.461Z,7.80
2018-10-02T22:47:17.702Z,8.10
2018-10-02T22:49:45.978Z,7.90
2018-10-02T22:52:14.302Z,8.00
2018-10-02T22:54:42.974Z,7.70
2018-10-02T22:57:11.377Z,8.10
2018-10-02T22:59:39.640Z,7.87
2018-10-02T23:02:07.835Z,9.90
2018-10-02T23:04:36.047Z,7.80
2018-10-02T23:07:04.452Z,6.58
2018-10-02T23:09:33.531Z,6.33
2018-10-02T23:12:01.960Z,7.03
2018-10-02T23:14:30.277Z,6.95
2018-10-02T23:16:58.520Z,6.70
2018-10-02T23:19:26.857Z,7.50
2018-10-02T23:21:56.424Z,7.13
2018-10-02T23:24:24.669Z,7.60
2018-10-02T23:26:52.898Z,6.20
2018-10-02T23:29:21.708Z,6.63
2018-10-02T23:31:49.981Z,6.80
2018-10-02T23:34:18.187Z,6.00
2018-10-02T23:36:46.572Z,7.50
2018-10-02T23:39:14.808Z,7.50
2018-10-02T23:41:43.015Z,6.20
2018-10-02T23:44:11.523Z,5.73
2018-10-02T23:46:39.723Z,6.57
2018-10-02T23:49:07.856Z,8.00
2018-10-02T23:51:36.245Z,6.27
2018-10-02T23:54:04.461Z,7.00
2018-10-02T23:56:32.664Z,6.80
2018-10-02T23:59:00.886Z,6.80
